Time;durP1;ratioP1;P1;durP2;ratioP2;P2;SDS_P1;SDS_P2;PMS_P1;PMS_P2;Temp;Humidity;BMP_temperature;BMP_pressure;BME280_temperature;BME280_humidity;BME280_pressure;Samples;Min_cycle;Max_cycle;Signal;HPM_P1;HPM_P2
2024/03/23 00:00:34;;;;;;;982.23;902.27;;;7.30;99.90;;;;;;5084819;28;20456;-64
2024/03/23 00:03:03;;;;;;;1006.23;926.73;;;7.30;99.90;;;;;;5077997;28;20540;-64
2024/03/23 00:05:32;;;;;;;989.10;915.33;;;7.40;99.90;;;;;;5073382;28;20519;-64
2024/03/23 00:08:01;;;;;;;1038.57;956.67;;;7.40;99.90;;;;;;5073028;28;20481;-65
2024/03/23 00:10:31;;;;;;;1003.47;924.40;;;7.30;99.90;;;;;;5072923;28;20541;-65
2024/03/23 00:13:02;;;;;;;982.77;906.37;;;7.30;99.90;;;;;;5072553;28;21040;-64
2024/03/23 00:15:31;;;;;;;996.03;913.70;;;7.30;99.90;;;;;;5073002;28;20459;-65
2024/03/23 00:18:00;;;;;;;992.77;912.80;;;7.30;99.90;;;;;;5072178;28;21123;-65
2024/03/23 00:20:28;;;;;;;986.10;903.90;;;7.30;99.90;;;;;;5080942;28;20451;-65
2024/03/23 00:22:58;;;;;;;966.53;888.23;;;7.20;99.90;;;;;;5072376;28;20516;-65
2024/03/23 00:25:26;;;;;;;1004.23;923.07;;;7.30;99.90;;;;;;5081054;28;20448;-65
2024/03/23 00:27:56;;;;;;;1028.00;946.70;;;7.30;99.90;;;;;;5072433;28;20506;-65
2024/03/23 00:30:24;;;;;;;1020.97;940.47;;;7.30;99.90;;;;;;5072128;28;20588;-64
2024/03/23 00:32:54;;;;;;;1006.17;929.60;;;7.20;99.90;;;;;;5072110;28;20535;-64
2024/03/23 00:35:22;;;;;;;1013.60;933.90;;;7.20;99.90;;;;;;5072019;28;20465;-64
2024/03/23 00:37:52;;;;;;;994.53;918.17;;;7.30;99.90;;;;;;5079987;28;20459;-65
2024/03/23 00:40:20;;;;;;;983.47;908.80;;;7.00;99.90;;;;;;5080916;28;20458;-65
2024/03/23 00:42:50;;;;;;;979.20;902.63;;;7.10;99.90;;;;;;5072075;28;20894;-65
2024/03/23 00:45:18;;;;;;;971.57;897.27;;;7.00;99.90;;;;;;5080399;28;20454;-65
2024/03/23 00:47:47;;;;;;;973.37;899.40;;;7.00;99.90;;;;;;5071600;28;20466;-66
2024/03/23 00:50:16;;;;;;;940.73;868.07;;;6.90;99.90;;;;;;5072510;28;20942;-66
2024/03/23 00:52:45;;;;;;;944.37;872.00;;;6.80;99.90;;;;;;5083697;28;20540;-65
2024/03/23 00:55:11;;;;;;;947.57;875.10;;;6.70;99.90;;;;;;5083703;28;20455;-65
2024/03/23 00:57:38;;;;;;;946.03;872.90;;;6.70;99.90;;;;;;5080304;28;20453;-65
2024/03/23 01:00:05;;;;;;;961.17;887.73;;;6.70;99.90;;;;;;5071886;28;20455;-65
2024/03/23 01:02:32;;;;;;;962.03;890.23;;;6.60;99.90;;;;;;5071667;28;20461;-65
2024/03/23 01:04:58;;;;;;;952.47;879.77;;;6.50;99.90;;;;;;5079309;28;20450;-66
2024/03/23 01:07:25;;;;;;;973.97;897.97;;;6.60;99.90;;;;;;5080025;28;20460;-66
2024/03/23 01:09:53;;;;;;;969.90;896.07;;;6.60;99.90;;;;;;5071854;28;20227;-66
2024/03/23 01:12:19;;;;;;;957.07;884.30;;;6.60;99.90;;;;;;5071781;28;20811;-66
2024/03/23 01:14:45;;;;;;;996.60;920.20;;;6.60;99.90;;;;;;5071879;28;20457;-66
2024/03/23 01:17:12;;;;;;;980.17;904.47;;;6.60;99.90;;;;;;5071417;28;20847;-66
2024/03/23 01:19:39;;;;;;;977.67;901.10;;;6.60;99.90;;;;;;5079900;28;20196;-65
2024/03/23 01:22:06;;;;;;;996.70;919.03;;;6.60;99.90;;;;;;5071996;28;20840;-66
2024/03/23 01:24:32;;;;;;;990.83;911.63;;;6.70;99.90;;;;;;5071607;28;20474;-66
2024/03/23 01:27:00;;;;;;;1020.87;940.53;;;6.60;99.90;;;;;;5079625;28;20465;-66
2024/03/23 01:29:26;;;;;;;1034.33;953.57;;;6.60;99.90;;;;;;5074215;28;20489;-66
2024/03/23 01:31:53;;;;;;;1021.37;941.47;;;6.60;99.90;;;;;;5078009;28;20945;-66
2024/03/23 01:34:20;;;;;;;1008.60;932.03;;;6.50;99.90;;;;;;5081204;28;20699;-66
2024/03/23 01:36:47;;;;;;;1039.27;959.30;;;6.50;99.90;;;;;;5072243;28;20507;-66
2024/03/23 01:39:14;;;;;;;1017.60;942.50;;;6.50;99.90;;;;;;5071712;28;20446;-66
2024/03/23 01:41:42;;;;;;;1017.33;944.97;;;6.40;99.90;;;;;;5083347;28;20489;-66
2024/03/23 01:44:10;;;;;;;991.77;923.37;;;6.00;99.90;;;;;;5074866;28;20479;-66
2024/03/23 01:46:38;;;;;;;949.37;883.53;;;5.70;99.90;;;;;;5071257;28;20458;-66
2024/03/23 01:49:05;;;;;;;916.77;851.27;;;5.60;99.90;;;;;;5079158;28;20485;-65
2024/03/23 01:51:33;;;;;;;886.63;826.13;;;5.50;99.90;;;;;;5071533;28;20541;-67
2024/03/23 01:54:00;;;;;;;893.70;832.50;;;5.40;99.90;;;;;;5079776;28;20858;-66
2024/03/23 01:56:27;;;;;;;897.47;834.97;;;5.40;99.90;;;;;;5071150;28;20949;-65
2024/03/23 01:58:53;;;;;;;905.83;842.10;;;5.30;99.90;;;;;;5071327;28;20702;-65
2024/03/23 02:01:21;;;;;;;894.77;831.07;;;5.30;99.90;;;;;;5072745;28;20482;-65
2024/03/23 02:03:47;;;;;;;901.87;837.57;;;5.30;99.90;;;;;;5083303;28;20211;-65
2024/03/23 02:06:14;;;;;;;903.67;838.83;;;5.30;99.90;;;;;;5074164;28;20480;-65
2024/03/23 02:08:40;;;;;;;886.60;822.30;;;5.30;99.90;;;;;;5079281;28;20242;-65
2024/03/23 02:11:07;;;;;;;900.67;833.20;;;5.20;99.90;;;;;;5071276;28;20466;-65
2024/03/23 02:13:33;;;;;;;909.93;841.37;;;5.30;99.90;;;;;;5079353;28;20470;-65
2024/03/23 02:16:00;;;;;;;913.00;844.80;;;5.30;99.90;;;;;;5073825;28;20468;-65
2024/03/23 02:18:27;;;;;;;976.93;901.80;;;5.30;99.90;;;;;;5085494;28;20450;-66
2024/03/23 02:20:54;;;;;;;980.90;904.80;;;5.30;99.90;;;;;;5086662;28;20506;-65
2024/03/23 02:23:21;;;;;;;980.60;904.30;;;5.30;99.90;;;;;;5076530;28;20476;-65
2024/03/23 02:25:48;;;;;;;1010.47;931.07;;;5.30;99.90;;;;;;5082990;28;20461;-66
2024/03/23 02:28:14;;;;;;;1010.33;932.03;;;5.30;99.90;;;;;;5082332;28;20453;-66
2024/03/23 02:30:40;;;;;;;1008.63;929.67;;;5.20;99.90;;;;;;5078990;28;20491;-66
2024/03/23 02:33:06;;;;;;;1007.43;927.97;;;5.20;99.90;;;;;;5078073;28;20216;-65
2024/03/23 02:35:33;;;;;;;1003.73;924.57;;;5.30;99.90;;;;;;5074532;28;20454;-66
2024/03/23 02:37:59;;;;;;;1030.10;948.13;;;5.20;99.90;;;;;;5082666;28;20257;-66
2024/03/23 02:40:28;;;;;;;1036.47;951.47;;;5.30;99.90;;;;;;5076710;28;20450;-65
2024/03/23 02:42:54;;;;;;;1050.23;961.43;;;5.30;99.90;;;;;;5079488;28;20220;-65
2024/03/23 02:45:21;;;;;;;1073.97;981.53;;;5.40;99.90;;;;;;5074140;28;20454;-65
2024/03/23 02:47:47;;;;;;;1085.03;992.10;;;5.40;99.90;;;;;;5074273;28;20197;-66
2024/03/23 02:50:15;;;;;;;1101.10;999.90;;;5.40;99.90;;;;;;5074149;28;20478;-65
2024/03/23 02:52:41;;;;;;;1105.13;999.90;;;5.40;99.90;;;;;;5078707;28;20310;-65
2024/03/23 02:55:08;;;;;;;1116.57;999.90;;;5.40;99.90;;;;;;5077805;28;20542;-65
2024/03/23 02:57:35;;;;;;;1106.77;999.90;;;5.30;99.90;;;;;;5082000;28;20659;-65
2024/03/23 03:00:02;;;;;;;1111.87;999.90;;;5.40;99.90;;;;;;5074103;28;20892;-65
2024/03/23 03:02:29;;;;;;;1106.50;999.90;;;5.40;99.90;;;;;;5073902;28;20468;-65
2024/03/23 03:04:55;;;;;;;1113.73;999.90;;;5.30;99.90;;;;;;5074003;28;20446;-66
2024/03/23 03:07:21;;;;;;;1131.10;999.90;;;5.30;99.90;;;;;;5075293;28;20450;-66
2024/03/23 03:09:47;;;;;;;1121.03;999.90;;;5.30;99.90;;;;;;5080040;28;20220;-65
2024/03/23 03:12:14;;;;;;;1128.20;999.90;;;5.20;99.90;;;;;;5074155;28;20477;-65
2024/03/23 03:14:41;;;;;;;1124.17;999.90;;;5.30;99.90;;;;;;5074143;28;20216;-65
2024/03/23 03:17:08;;;;;;;1113.33;999.90;;;5.30;99.90;;;;;;5081872;28;20975;-65
2024/03/23 03:19:34;;;;;;;1107.30;999.90;;;5.30;99.90;;;;;;5082186;28;20937;-65
2024/03/23 03:22:01;;;;;;;1134.60;999.90;;;5.30;99.90;;;;;;5081522;28;20449;-65
2024/03/23 03:24:26;;;;;;;1126.70;999.90;;;5.30;99.90;;;;;;5074223;28;20470;-65
2024/03/23 03:26:53;;;;;;;1120.60;999.90;;;5.30;99.90;;;;;;5072938;28;20464;-64
2024/03/23 03:29:19;;;;;;;1121.87;999.90;;;5.30;99.90;;;;;;5074789;28;20274;-65
2024/03/23 03:31:49;;;;;;;1115.40;999.90;;;5.30;99.90;;;;;;5080098;28;20511;-65
2024/03/23 03:34:15;;;;;;;1128.37;999.90;;;5.30;99.90;;;;;;5073256;28;20549;-65
2024/03/23 03:36:42;;;;;;;1123.90;999.90;;;5.20;99.90;;;;;;5073409;28;20545;-65
2024/03/23 03:39:08;;;;;;;1132.87;999.90;;;5.20;99.90;;;;;;5072688;28;20446;-65
2024/03/23 03:41:35;;;;;;;1118.83;999.90;;;5.30;99.90;;;;;;5073535;28;20480;-64
2024/03/23 03:44:01;;;;;;;1142.90;999.90;;;5.30;99.90;;;;;;5081657;28;20216;-64
2024/03/23 03:46:28;;;;;;;1143.53;999.90;;;5.30;99.90;;;;;;5073398;28;20506;-65
2024/03/23 03:48:56;;;;;;;1153.70;999.90;;;5.30;99.90;;;;;;5081076;28;20488;-64
2024/03/23 03:51:22;;;;;;;1144.20;999.90;;;5.30;99.90;;;;;;5081273;28;20464;-64
2024/03/23 03:53:48;;;;;;;1155.57;999.90;;;5.30;99.90;;;;;;5078501;28;20473;-65
2024/03/23 03:56:15;;;;;;;1158.17;999.90;;;5.30;99.90;;;;;;5084371;28;20453;-64
2024/03/23 03:58:41;;;;;;;1157.33;999.90;;;5.30;99.90;;;;;;5077056;28;20200;-64
2024/03/23 04:01:07;;;;;;;1131.60;999.90;;;5.30;99.90;;;;;;5076744;28;20494;-64
2024/03/23 04:03:34;;;;;;;1136.37;999.90;;;5.30;99.90;;;;;;5081183;28;20224;-64
2024/03/23 04:06:03;;;;;;;1160.03;999.90;;;5.30;99.90;;;;;;5072569;28;20826;-65
2024/03/23 04:08:29;;;;;;;1140.10;999.90;;;5.20;99.90;;;;;;5083847;28;20453;-65
2024/03/23 04:10:55;;;;;;;1120.40;999.90;;;5.30;99.90;;;;;;5084668;28;20488;-65
2024/03/23 04:13:21;;;;;;;1117.13;999.90;;;5.30;99.90;;;;;;5082639;28;20469;-65
2024/03/23 04:15:48;;;;;;;1130.20;999.90;;;5.30;99.90;;;;;;5072695;28;20976;-65
2024/03/23 04:18:14;;;;;;;1132.63;999.90;;;5.30;99.90;;;;;;5080945;28;20465;-65
2024/03/23 04:20:41;;;;;;;1135.10;999.90;;;5.30;99.90;;;;;;5076793;28;20460;-65
2024/03/23 04:23:08;;;;;;;1152.53;999.90;;;5.40;99.90;;;;;;5084205;28;20985;-65
2024/03/23 04:25:35;;;;;;;1145.27;999.90;;;5.40;99.90;;;;;;5081171;28;20462;-65
2024/03/23 04:28:00;;;;;;;1141.40;999.90;;;5.40;99.90;;;;;;5079578;28;20460;-65
2024/03/23 04:30:29;;;;;;;1149.57;999.90;;;5.40;99.90;;;;;;5075901;28;20474;-65
2024/03/23 04:32:54;;;;;;;1132.43;999.90;;;5.40;99.90;;;;;;5077505;28;20726;-65
2024/03/23 04:35:22;;;;;;;1130.77;999.90;;;5.40;99.90;;;;;;5074150;28;20458;-65
2024/03/23 04:37:49;;;;;;;1125.30;999.90;;;5.40;99.90;;;;;;5078290;28;20561;-65
2024/03/23 04:40:17;;;;;;;1142.60;999.90;;;5.40;99.90;;;;;;5080867;28;20451;-65
2024/03/23 04:42:44;;;;;;;1128.20;999.90;;;5.50;99.90;;;;;;5072269;28;20994;-65
2024/03/23 04:45:11;;;;;;;1151.93;999.90;;;5.50;99.90;;;;;;5080618;28;20960;-65
2024/03/23 04:47:38;;;;;;;1134.33;999.90;;;5.50;99.90;;;;;;5071616;28;20840;-65
2024/03/23 04:50:05;;;;;;;1140.63;999.90;;;5.50;99.90;;;;;;5071971;28;20485;-65
2024/03/23 04:52:32;;;;;;;1133.37;999.90;;;5.50;99.90;;;;;;5080559;28;20456;-65
2024/03/23 04:54:59;;;;;;;1140.87;999.90;;;5.40;99.90;;;;;;5079215;28;20536;-65
2024/03/23 04:57:26;;;;;;;1137.83;999.90;;;5.40;99.90;;;;;;5075513;28;20459;-65
2024/03/23 04:59:53;;;;;;;1131.67;999.90;;;5.40;99.90;;;;;;5084005;28;20461;-65
2024/03/23 05:02:19;;;;;;;1133.80;999.90;;;5.40;99.90;;;;;;5073783;28;20450;-64
2024/03/23 05:04:45;;;;;;;1116.63;999.90;;;5.40;99.90;;;;;;5072103;28;20482;-64
2024/03/23 05:07:11;;;;;;;1133.60;999.90;;;5.40;99.90;;;;;;5080097;28;20196;-65
2024/03/23 05:09:38;;;;;;;1135.60;999.90;;;5.30;99.90;;;;;;5072337;28;20486;-64
2024/03/23 05:12:04;;;;;;;1132.27;999.90;;;5.30;99.90;;;;;;5071919;28;20236;-65
2024/03/23 05:14:32;;;;;;;1157.43;999.90;;;5.40;99.90;;;;;;5074599;28;20505;-65
2024/03/23 05:16:58;;;;;;;1153.73;999.90;;;5.30;99.90;;;;;;5083303;28;20454;-65
2024/03/23 05:19:25;;;;;;;1138.83;999.90;;;5.30;99.90;;;;;;5081704;28;20464;-65
2024/03/23 05:21:53;;;;;;;1139.10;999.90;;;5.40;99.90;;;;;;5071527;28;20663;-65
2024/03/23 05:24:19;;;;;;;1128.63;999.90;;;5.40;99.90;;;;;;5071378;28;21009;-65
2024/03/23 05:26:45;;;;;;;1143.03;999.90;;;5.40;99.90;;;;;;5071783;28;20841;-65
2024/03/23 05:29:13;;;;;;;1159.23;999.90;;;5.40;99.90;;;;;;5071146;28;20478;-64
2024/03/23 05:31:41;;;;;;;1161.73;999.90;;;5.30;99.90;;;;;;5079642;28;20239;-65
2024/03/23 05:34:08;;;;;;;1166.47;999.90;;;5.20;99.90;;;;;;5071777;28;20484;-64
2024/03/23 05:36:34;;;;;;;1175.83;999.90;;;5.20;99.90;;;;;;5071661;28;20541;-65
2024/03/23 05:39:01;;;;;;;1176.77;999.90;;;5.20;99.90;;;;;;5079561;28;20541;-65
2024/03/23 05:41:27;;;;;;;1174.40;999.90;;;5.20;99.90;;;;;;5071811;28;20690;-64
2024/03/23 05:43:54;;;;;;;1185.73;999.90;;;5.10;99.90;;;;;;5071725;28;20510;-64
2024/03/23 05:46:19;;;;;;;1188.83;999.90;;;5.10;99.90;;;;;;5073077;28;20461;-65
2024/03/23 05:48:48;;;;;;;1190.20;999.90;;;5.10;99.90;;;;;;5078038;28;20454;-64
2024/03/23 05:51:14;;;;;;;1185.80;999.90;;;5.10;99.90;;;;;;5082731;28;20478;-65
2024/03/23 05:53:40;;;;;;;1176.80;999.90;;;5.10;99.90;;;;;;5079713;28;20479;-65
2024/03/23 05:56:06;;;;;;;1195.10;999.90;;;5.10;99.90;;;;;;5087212;28;20230;-65
2024/03/23 05:58:33;;;;;;;1171.73;999.90;;;5.10;99.90;;;;;;5083188;28;20493;-64
2024/03/23 06:01:01;;;;;;;1177.03;999.90;;;5.10;99.90;;;;;;5083774;28;20525;-65
2024/03/23 06:03:28;;;;;;;1198.10;999.90;;;5.10;99.90;;;;;;5074861;28;20474;-65
2024/03/23 06:05:55;;;;;;;1208.83;999.90;;;5.10;99.90;;;;;;5083550;28;20837;-64
2024/03/23 06:08:23;;;;;;;1192.03;999.90;;;5.00;99.90;;;;;;5076391;28;20485;-65
2024/03/23 06:10:50;;;;;;;1195.57;999.90;;;4.90;99.90;;;;;;5080894;28;20997;-65
2024/03/23 06:13:17;;;;;;;1187.17;999.90;;;4.90;99.90;;;;;;5074721;28;20466;-64
2024/03/23 06:15:42;;;;;;;1181.30;999.90;;;4.90;99.90;;;;;;5083465;28;20464;-65
2024/03/23 06:18:09;;;;;;;1184.20;999.90;;;4.90;99.90;;;;;;5083221;28;20457;-63
2024/03/23 06:20:35;;;;;;;1185.70;999.90;;;4.90;99.90;;;;;;5078698;28;20445;-64
2024/03/23 06:23:04;;;;;;;1187.20;999.90;;;4.90;99.90;;;;;;5079494;28;20473;-64
2024/03/23 06:25:30;;;;;;;1186.87;999.90;;;4.90;99.90;;;;;;5074630;28;20453;-64
2024/03/23 06:27:58;;;;;;;1195.67;999.90;;;4.90;99.90;;;;;;5074297;28;20458;-65
2024/03/23 06:30:24;;;;;;;1186.70;999.90;;;4.90;99.90;;;;;;5083165;28;20575;-65
2024/03/23 06:32:50;;;;;;;1184.33;999.90;;;5.00;99.90;;;;;;5074589;28;20568;-64
2024/03/23 06:35:16;;;;;;;1191.67;999.90;;;5.00;99.90;;;;;;5082805;28;20659;-65
2024/03/23 06:37:43;;;;;;;1185.27;999.90;;;5.10;99.90;;;;;;5073895;28;20461;-65
2024/03/23 06:40:10;;;;;;;1188.83;999.90;;;5.20;99.90;;;;;;5073945;28;20214;-64
2024/03/23 06:42:37;;;;;;;1197.10;999.90;;;5.20;99.90;;;;;;5073638;28;20458;-65
2024/03/23 06:45:04;;;;;;;1201.70;999.90;;;5.30;99.90;;;;;;5082984;28;20454;-65
2024/03/23 06:47:31;;;;;;;1216.50;999.90;;;5.30;99.90;;;;;;5073994;28;20453;-65
2024/03/23 06:49:57;;;;;;;1200.47;999.90;;;5.40;99.90;;;;;;5074291;28;20484;-65
2024/03/23 06:52:24;;;;;;;1201.93;999.90;;;5.40;99.90;;;;;;5074156;28;20950;-65
2024/03/23 06:54:50;;;;;;;1193.17;999.90;;;5.50;99.90;;;;;;5079913;28;20472;-65
2024/03/23 06:57:18;;;;;;;1202.83;999.90;;;5.50;99.90;;;;;;5084519;28;20446;-65
2024/03/23 06:59:44;;;;;;;1191.67;999.90;;;5.60;99.90;;;;;;5074255;28;20682;-65
2024/03/23 07:02:11;;;;;;;1209.33;999.90;;;5.70;99.90;;;;;;5074133;28;20453;-66
2024/03/23 07:04:39;;;;;;;1216.37;999.90;;;5.70;99.90;;;;;;5074103;28;20224;-65
2024/03/23 07:07:06;;;;;;;1208.77;999.90;;;5.80;99.90;;;;;;5073548;28;20841;-65
2024/03/23 07:09:33;;;;;;;1199.70;999.90;;;5.80;99.90;;;;;;5081809;28;20478;-66
2024/03/23 07:11:59;;;;;;;1216.30;999.90;;;5.90;99.90;;;;;;5073935;28;20819;-65
2024/03/23 07:14:27;;;;;;;1208.97;999.90;;;5.90;99.90;;;;;;5081661;28;20554;-65
2024/03/23 07:16:53;;;;;;;1206.07;999.90;;;6.00;99.90;;;;;;5082310;28;20457;-65
2024/03/23 07:19:19;;;;;;;1209.50;999.90;;;6.10;99.90;;;;;;5081707;28;20915;-65
2024/03/23 07:21:45;;;;;;;1173.57;999.90;;;6.20;99.90;;;;;;5082193;28;20235;-66
2024/03/23 07:24:12;;;;;;;1174.93;999.90;;;6.20;99.90;;;;;;5073556;28;20478;-65
2024/03/23 07:26:38;;;;;;;1182.80;999.90;;;6.30;99.90;;;;;;5073316;28;20200;-65
2024/03/23 07:29:05;;;;;;;1173.30;999.90;;;6.40;99.90;;;;;;5081303;28;20464;-65
2024/03/23 07:31:32;;;;;;;1157.80;999.90;;;6.50;99.90;;;;;;5073386;28;20220;-65
2024/03/23 07:33:59;;;;;;;1118.93;999.90;;;6.60;99.90;;;;;;5073327;28;20909;-66
2024/03/23 07:36:25;;;;;;;1061.47;977.53;;;6.50;99.90;;;;;;5075613;28;20454;-66
2024/03/23 07:38:53;;;;;;;1067.33;982.00;;;6.50;99.90;;;;;;5079044;28;20450;-66
2024/03/23 07:41:20;;;;;;;1063.70;978.83;;;6.60;99.90;;;;;;5073641;28;20832;-65
2024/03/23 07:43:48;;;;;;;989.73;911.63;;;6.70;99.90;;;;;;5072276;28;20470;-65
2024/03/23 07:46:16;;;;;;;959.07;882.40;;;6.70;99.90;;;;;;5071883;28;20450;-66
2024/03/23 07:48:44;;;;;;;926.80;853.80;;;6.70;99.90;;;;;;5080247;28;20450;-65
2024/03/23 07:51:11;;;;;;;886.27;818.47;;;6.70;99.90;;;;;;5072583;28;20482;-65
2024/03/23 07:53:39;;;;;;;882.40;814.27;;;6.70;99.90;;;;;;5072353;28;20561;-65
2024/03/23 07:56:06;;;;;;;868.87;806.63;;;6.60;99.90;;;;;;5080295;28;20967;-64
2024/03/23 07:58:33;;;;;;;859.60;802.00;;;6.60;99.90;;;;;;5072629;28;20477;-65
2024/03/23 08:01:05;;;;;;;843.23;790.70;;;6.60;99.90;;;;;;5080546;28;20964;-65
2024/03/23 08:03:31;;;;;;;836.83;786.27;;;6.80;99.90;;;;;;5082704;28;20522;-65
2024/03/23 08:06:07;;;;;;;785.70;746.83;;;6.80;99.90;;;;;;5077330;28;20450;-66
2024/03/23 08:08:33;;;;;;;792.60;754.27;;;6.90;99.90;;;;;;5075476;28;20835;-66
2024/03/23 08:10:59;;;;;;;721.23;690.37;;;7.10;99.90;;;;;;5077135;28;21157;-66
2024/03/23 08:13:27;;;;;;;712.13;681.00;;;7.50;99.90;;;;;;5073141;28;20478;-65
2024/03/23 08:15:58;;;;;;;354.10;342.43;;;7.60;99.90;;;;;;5077626;28;20588;-65
2024/03/23 08:18:23;;;;;;;639.43;613.13;;;7.50;99.90;;;;;;5082061;28;20837;-66
2024/03/23 08:20:57;;;;;;;729.57;697.50;;;7.60;99.90;;;;;;5078272;28;20461;-66
2024/03/23 08:23:24;;;;;;;734.47;700.60;;;7.60;99.90;;;;;;5071962;28;20524;-66
2024/03/23 08:25:51;;;;;;;340.33;327.63;;;7.70;99.90;;;;;;5071969;28;20926;-66
2024/03/23 08:28:17;;;;;;;256.10;246.67;;;7.80;99.90;;;;;;5081167;28;20450;-65
2024/03/23 08:30:44;;;;;;;67.77;64.10;;;7.90;99.90;;;;;;5079037;28;20493;-66
2024/03/23 08:33:10;;;;;;;83.33;79.30;;;7.90;99.90;;;;;;5080920;28;20479;-68
2024/03/23 08:35:37;;;;;;;86.47;82.33;;;7.80;99.90;;;;;;5080214;28;20450;-66
2024/03/23 08:38:03;;;;;;;71.93;67.83;;;8.10;99.90;;;;;;5081217;28;20192;-69
2024/03/23 08:40:31;;;;;;;77.87;73.47;;;8.50;99.90;;;;;;5083794;28;20465;-67
2024/03/23 08:42:57;;;;;;;43.57;40.23;;;8.70;99.90;;;;;;5077825;28;20470;-66
2024/03/23 08:45:24;;;;;;;93.10;87.50;;;8.70;99.90;;;;;;5077877;28;20468;-68
2024/03/23 08:47:51;;;;;;;73.03;68.90;;;9.30;99.90;;;;;;5091479;28;20199;-68
2024/03/23 08:50:17;;;;;;;38.77;36.33;;;9.50;99.90;;;;;;5092072;28;20473;-67
2024/03/23 08:52:43;;;;;;;43.87;41.17;;;9.30;99.90;;;;;;5079642;28;20472;-67
2024/03/23 08:55:10;;;;;;;31.10;28.60;;;9.60;98.70;;;;;;5084838;28;20989;-66
2024/03/23 08:57:37;;;;;;;37.23;34.73;;;9.80;98.40;;;;;;5080596;28;20504;-66
2024/03/23 09:00:06;;;;;;;21.63;15.70;;;9.90;98.00;;;;;;5080556;28;20493;-67
2024/03/23 09:02:31;;;;;;;17.27;14.23;;;10.00;97.60;;;;;;5083755;28;20453;-67
2024/03/23 09:05:04;;;;;;;23.73;18.93;;;9.90;98.00;;;;;;5084158;28;20449;-68
2024/03/23 09:07:30;;;;;;;29.90;25.20;;;10.00;91.40;;;;;;5080992;28;20298;-67
2024/03/23 09:09:56;;;;;;;18.70;13.03;;;10.40;94.60;;;;;;5080159;28;20466;-66
2024/03/23 09:12:23;;;;;;;14.70;10.20;;;10.30;91.10;;;;;;5081925;28;20481;-66
2024/03/23 09:14:53;;;;;;;20.13;16.33;;;10.00;93.00;;;;;;5083753;28;21013;-66
2024/03/23 09:17:19;;;;;;;18.53;11.80;;;10.00;94.40;;;;;;5082211;28;20535;-67
2024/03/23 09:19:46;;;;;;;15.70;8.47;;;10.30;95.40;;;;;;5080347;28;21147;-67
2024/03/23 09:22:11;;;;;;;18.37;10.73;;;10.60;91.20;;;;;;5080677;28;20447;-66
2024/03/23 09:24:39;;;;;;;11.70;6.33;;;10.70;77.50;;;;;;5084048;28;20477;-65
2024/03/23 09:27:05;;;;;;;16.50;9.63;;;10.80;91.30;;;;;;5088250;28;20663;-66
2024/03/23 09:29:32;;;;;;;10.60;4.07;;;10.60;85.30;;;;;;5084517;28;20537;-66
2024/03/23 09:31:59;;;;;;;11.02;4.78;;;10.10;83.30;;;;;;5083861;28;20961;-67
2024/03/23 09:34:26;;;;;;;9.87;4.10;;;9.80;77.70;;;;;;5086384;28;20323;-66
2024/03/23 09:36:52;;;;;;;18.87;4.67;;;10.30;83.50;;;;;;5087428;28;20450;-66
2024/03/23 09:39:19;;;;;;;10.73;3.50;;;10.90;78.50;;;;;;5086114;28;20449;-66
2024/03/23 09:41:45;;;;;;;10.27;3.72;;;11.30;70.30;;;;;;5083726;28;20449;-66
2024/03/23 09:44:12;;;;;;;11.65;3.05;;;11.20;65.20;;;;;;5084038;28;20870;-66
2024/03/23 09:46:39;;;;;;;13.87;2.87;;;10.50;61.40;;;;;;5087760;28;20202;-66
2024/03/23 09:49:08;;;;;;;20.03;5.83;;;10.50;61.40;;;;;;5087184;28;20536;-65
2024/03/23 09:51:36;;;;;;;8.10;2.27;;;10.60;61.50;;;;;;5087391;28;20485;-67
2024/03/23 09:54:03;;;;;;;16.97;3.70;;;11.00;61.90;;;;;;5087127;28;20469;-67
2024/03/23 09:56:29;;;;;;;8.00;2.67;;;11.30;62.00;;;;;;5085205;28;20480;-68
2024/03/23 09:59:02;;;;;;;16.33;3.57;;;11.90;54.30;;;;;;5083873;28;20487;-67
2024/03/23 10:01:29;;;;;;;10.37;3.60;;;12.30;46.10;;;;;;5084565;28;20691;-67
2024/03/23 10:03:56;;;;;;;8.10;2.30;;;12.80;43.70;;;;;;5085215;28;20497;-66
2024/03/23 10:06:24;;;;;;;18.73;3.10;;;13.10;29.20;;;;;;5085539;28;20451;-66
2024/03/23 10:08:51;;;;;;;6.67;2.33;;;13.40;29.40;;;;;;5086919;28;20527;-67
2024/03/23 10:11:19;;;;;;;10.17;2.43;;;12.90;29.10;;;;;;5085839;28;20472;-66
2024/03/23 10:13:47;;;;;;;10.20;2.57;;;12.70;28.90;;;;;;5083517;28;20470;-66
2024/03/23 10:16:21;;;;;;;7.80;2.13;;;12.10;28.40;;;;;;5074817;28;20450;-66
2024/03/23 10:18:48;;;;;;;8.53;1.87;;;11.50;28.10;;;;;;5083323;28;20445;-66
2024/03/23 10:21:15;;;;;;;9.50;3.03;;;10.60;31.90;;;;;;5083861;28;20450;-66
2024/03/23 10:23:44;;;;;;;12.73;5.70;;;10.10;27.00;;;;;;5086833;28;20480;-66
2024/03/23 10:26:18;;;;;;;9.03;3.73;;;9.80;44.70;;;;;;5086603;28;20455;-66
2024/03/23 10:28:58;;;;;;;11.70;4.40;;;9.60;44.50;;;;;;5083008;28;20450;-65
2024/03/23 10:31:24;;;;;;;6.90;2.80;;;9.40;45.20;;;;;;5085167;28;20560;-66
2024/03/23 10:33:53;;;;;;;5.37;1.80;;;9.60;52.90;;;;;;5086475;28;20480;-66
2024/03/23 10:36:20;;;;;;;7.27;1.83;;;9.20;44.20;;;;;;5084829;28;20829;-66
2024/03/23 10:38:50;;;;;;;5.30;2.00;;;9.00;44.00;;;;;;5082988;28;20450;-65
2024/03/23 10:41:16;;;;;;;12.07;2.33;;;8.90;52.70;;;;;;5084093;28;20472;-65
2024/03/23 10:43:45;;;;;;;7.40;2.23;;;8.80;50.80;;;;;;5086548;28;20481;-65
2024/03/23 10:46:11;;;;;;;7.33;3.10;;;9.00;53.30;;;;;;5086010;28;20506;-66
2024/03/23 10:48:38;;;;;;;9.00;3.00;;;9.10;61.20;;;;;;5083032;28;20457;-65
2024/03/23 10:51:07;;;;;;;8.63;3.90;;;9.00;60.90;;;;;;5082721;28;20531;-65
2024/03/23 10:53:34;;;;;;;22.03;2.13;;;8.90;61.00;;;;;;5086317;28;20473;-66
2024/03/23 10:56:02;;;;;;;4.70;1.90;;;7.50;59.80;;;;;;5086339;28;20495;-66
2024/03/23 10:58:32;;;;;;;4.97;2.87;;;5.90;99.90;;;;;;5083159;28;20457;-66
2024/03/23 11:00:58;;;;;;;8.13;6.30;;;5.60;99.90;;;;;;5082611;28;21262;-66
2024/03/23 11:03:33;;;;;;;18.23;17.10;;;5.60;99.90;;;;;;5084603;28;20504;-66
2024/03/23 11:06:00;;;;;;;7.83;7.23;;;5.90;99.90;;;;;;5086235;28;20445;-66
2024/03/23 11:08:37;;;;;;;17.17;16.07;;;5.60;99.90;;;;;;5082661;28;20452;-67
2024/03/23 11:11:14;;;;;;;7.33;4.67;;;5.70;99.90;;;;;;5082125;28;20519;-66
2024/03/23 11:13:41;;;;;;;7.20;4.43;;;5.80;99.90;;;;;;5073781;28;20496;-66
2024/03/23 11:16:17;;;;;;;7.03;4.00;;;6.10;99.90;;;;;;5082532;28;20451;-66
2024/03/23 11:18:44;;;;;;;8.63;7.07;;;6.30;99.90;;;;;;5081997;28;20984;-66
2024/03/23 11:21:10;;;;;;;9.40;5.30;;;7.10;99.90;;;;;;5082649;28;20442;-67
2024/03/23 11:23:37;;;;;;;7.70;3.13;;;8.50;97.50;;;;;;5085638;28;20465;-67
2024/03/23 11:26:07;;;;;;;7.00;1.97;;;9.70;77.60;;;;;;5085823;28;20449;-67
2024/03/23 11:28:35;;;;;;;6.33;1.50;;;10.60;61.60;;;;;;5077004;28;20459;-67
2024/03/23 11:31:01;;;;;;;6.43;1.33;;;11.00;44.80;;;;;;5077719;28;20482;-65
2024/03/23 11:33:28;;;;;;;6.33;1.50;;;11.50;45.30;;;;;;5081579;28;21118;-67
2024/03/23 11:35:54;;;;;;;7.03;1.33;;;11.90;45.60;;;;;;5081978;28;20622;-66
2024/03/23 11:38:21;;;;;;;8.20;2.43;;;12.10;28.90;;;;;;5074143;28;20446;-66
2024/03/23 11:40:48;;;;;;;7.43;2.00;;;12.60;28.80;;;;;;5085431;28;20218;-66
2024/03/23 11:43:17;;;;;;;6.83;1.43;;;12.80;29.00;;;;;;5084618;28;20469;-66
2024/03/23 11:45:45;;;;;;;5.07;1.47;;;13.50;29.50;;;;;;5081842;28;20450;-66
2024/03/23 11:48:13;;;;;;;7.30;1.63;;;13.70;29.60;;;;;;5080939;28;20516;-66
2024/03/23 11:50:43;;;;;;;7.87;1.90;;;14.40;30.00;;;;;;5085043;28;20530;-66
2024/03/23 11:53:15;;;;;;;7.63;1.50;;;15.20;23.60;;;;;;5084892;28;20478;-65
2024/03/23 11:55:46;;;;;;;8.18;1.80;;;15.60;16.50;;;;;;5081456;28;20826;-66
2024/03/23 11:58:14;;;;;;;6.63;1.27;;;13.60;15.10;;;;;;5081616;28;20188;-66
2024/03/23 12:00:40;;;;;;;9.83;1.30;;;10.40;27.20;;;;;;5084833;28;20441;-66
2024/03/23 12:03:09;;;;;;;4.17;1.03;;;9.60;44.50;;;;;;5084761;28;20857;-65
2024/03/23 12:05:36;;;;;;;6.73;1.60;;;9.10;61.20;;;;;;5072974;28;20508;-66
2024/03/23 12:08:20;;;;;;;6.10;1.37;;;8.40;84.20;;;;;;5080342;28;20454;-66
2024/03/23 12:10:48;;;;;;;4.73;1.50;;;7.50;90.40;;;;;;5080987;28;20478;-65
2024/03/23 12:13:20;;;;;;;7.57;1.57;;;6.40;99.90;;;;;;5072470;28;20478;-65
2024/03/23 12:15:46;;;;;;;4.63;1.70;;;5.80;99.90;;;;;;5081332;28;20450;-65
2024/03/23 12:18:15;;;;;;;5.77;2.50;;;5.70;99.90;;;;;;5081604;28;20826;-65
2024/03/23 12:20:41;;;;;;;4.30;2.10;;;5.90;99.90;;;;;;5085400;28;20530;-65